Time;durP1;ratioP1;P1;durP2;ratioP2;P2;SDS_P1;SDS_P2;PMS_P1;PMS_P2;Temp;Humidity;BMP_temperature;BMP_pressure;BME280_temperature;BME280_humidity;BME280_pressure;Samples;Min_cycle;Max_cycle;Signal;HPM_P1;HPM_P2
2022/02/25 00:01:42;;;;;;;1999.90;999.90;;;;;;;6.45;60.48;100552.63;15343178;29;20055;-60
2022/02/25 00:09:17;;;;;;;1999.90;999.90;;;;;;;6.35;59.83;100572.25;15359336;29;20057;-60
2022/02/25 00:16:53;;;;;;;176.52;159.73;;;;;;;6.08;60.32;100593.28;15374311;29;20409;-56
2022/02/25 00:24:34;;;;;;;192.85;172.02;;;;;;;6.00;61.06;100618.91;15357379;29;20040;-58
2022/02/25 00:32:07;;;;;;;122.85;111.50;;;;;;;6.22;60.86;100634.03;15356984;28;20043;-60
2022/02/25 00:39:46;;;;;;;577.58;467.58;;;;;;;5.90;61.43;100659.78;15374178;29;20511;-59
2022/02/25 00:47:25;;;;;;;105.22;96.95;;;;;;;5.89;61.67;100671.97;15373254;29;20413;-59
2022/02/25 00:55:08;;;;;;;194.88;167.77;;;;;;;5.97;61.26;100674.09;15382730;28;20473;-62
2022/02/25 01:02:46;;;;;;;235.52;214.80;;;;;;;5.91;61.62;100692.75;15365560;29;20062;-62
2022/02/25 01:10:19;;;;;;;293.20;265.57;;;;;;;6.06;62.03;100711.06;15372217;29;20563;-60
2022/02/25 01:17:52;;;;;;;;;;;;;;;6.14;61.69;100724.19;15372972;29;20401;-61
2022/02/25 01:25:26;;;;;;;226.73;206.40;;;;;;;5.95;62.72;100721.50;15354869;29;19929;-63
2022/02/25 01:32:58;;;;;;;329.48;304.58;;;;;;;5.93;62.51;100739.50;15372483;29;20051;-61
2022/02/25 01:40:36;;;;;;;211.30;193.00;;;;;;;5.70;62.89;100739.28;15354937;29;20046;-59
2022/02/25 01:48:12;;;;;;;280.58;251.25;;;;;;;5.75;62.12;100744.75;15370965;29;20043;-59
2022/02/25 01:55:49;;;;;;;98.20;89.05;;;;;;;5.72;61.95;100759.19;15369476;29;20047;-59
2022/02/25 02:03:35;;;;;;;1999.90;999.90;;;;;;;6.13;60.38;100764.13;15369729;29;20043;-62
2022/02/25 02:11:09;;;;;;;264.98;229.73;;;;;;;5.90;60.76;100770.56;15370244;29;20047;-63
2022/02/25 02:18:41;;;;;;;1999.90;999.90;;;;;;;6.33;60.51;100787.91;15355980;29;20052;-61
2022/02/25 02:26:14;;;;;;;493.92;394.38;;;;;;;6.36;60.31;100802.00;15369159;29;20397;-57
2022/02/25 02:33:47;;;;;;;318.77;288.42;;;;;;;5.97;61.57;100798.75;15352586;29;20102;-60
2022/02/25 02:41:20;;;;;;;289.25;263.60;;;;;;;5.79;61.98;100812.25;15369377;29;20051;-61
2022/02/25 02:48:53;;;;;;;283.13;259.17;;;;;;;5.75;62.56;100821.47;15370008;29;20568;-58
2022/02/25 02:56:26;;;;;;;211.10;195.32;;;;;;;5.60;62.95;100835.50;15376052;28;20130;-60
2022/02/25 03:03:59;;;;;;;;;;;;;;;5.54;63.19;100825.63;15369412;28;20039;-58
2022/02/25 03:11:33;;;;;;;317.58;286.73;;;;;;;5.31;63.84;100841.13;15378254;29;20020;-60
2022/02/25 03:19:04;;;;;;;;;;;;;;;5.60;63.11;100841.03;15378772;29;20047;-61
2022/02/25 03:26:38;;;;;;;320.35;286.30;;;;;;;5.27;64.35;100857.50;15344855;29;19926;-61
2022/02/25 03:34:10;;;;;;;314.88;288.45;;;;;;;5.36;63.79;100875.09;15377992;28;20130;-60
2022/02/25 03:41:44;;;;;;;252.05;232.02;;;;;;;5.24;64.39;100880.22;15344175;29;20054;-59
2022/02/25 03:49:16;;;;;;;203.02;187.80;;;;;;;5.18;64.14;100890.50;15358731;29;20176;-61
2022/02/25 03:56:50;;;;;;;324.52;303.13;;;;;;;5.12;64.78;100902.75;15359745;29;20045;-59
2022/02/25 04:04:23;;;;;;;326.33;304.08;;;;;;;5.14;64.48;100921.81;15375493;28;20051;-58
2022/02/25 04:11:56;;;;;;;297.80;278.15;;;;;;;5.24;64.39;100927.25;15336436;29;20102;-58
2022/02/25 04:19:28;;;;;;;238.48;222.77;;;;;;;5.06;65.17;100928.81;15358147;29;20043;-58
2022/02/25 04:27:05;;;;;;;243.10;226.43;;;;;;;5.06;64.48;100947.34;15356240;29;20213;-59
2022/02/25 04:34:37;;;;;;;228.10;213.00;;;;;;;4.88;65.26;100940.56;15357223;29;20047;-59
2022/02/25 04:42:11;;;;;;;286.08;260.25;;;;;;;4.99;65.19;100955.13;15374352;29;20073;-57
2022/02/25 04:49:43;;;;;;;212.82;199.55;;;;;;;4.74;65.66;100975.53;15374100;29;20102;-58
2022/02/25 04:57:17;;;;;;;231.35;215.40;;;;;;;4.73;65.72;100987.72;15389453;28;20053;-59
2022/02/25 05:04:49;;;;;;;220.10;206.30;;;;;;;4.82;66.14;100997.88;15404435;28;20444;-59
2022/02/25 05:12:24;;;;;;;262.02;245.05;;;;;;;4.88;65.48;101001.41;15373078;29;20051;-61
2022/02/25 05:27:48;;;;;;;221.52;207.07;;;;;;;4.61;66.49;101004.66;15355651;29;20564;-59
2022/02/25 05:35:21;;;;;;;251.75;235.50;;;;;;;4.49;66.53;101016.06;15355427;29;20047;-61
2022/02/25 05:42:55;;;;;;;;;;;;;;;4.45;66.66;101036.25;15373049;29;20645;-60
2022/02/25 05:50:46;;;;;;;275.98;250.57;;;;;;;4.34;66.36;101041.81;15371003;29;19933;-63
2022/02/25 05:58:20;;;;;;;242.65;228.20;;;;;;;4.55;66.14;101048.06;15371990;29;20098;-59
2022/02/25 06:05:52;;;;;;;;;;;;;;;4.44;65.62;101049.25;15371020;29;20058;-56
2022/02/25 06:13:30;;;;;;;286.90;267.60;;;;;;;4.48;65.79;101055.88;15369488;29;19922;-58
2022/02/25 06:21:03;;;;;;;252.38;234.10;;;;;;;4.42;66.36;101058.94;15370696;29;20055;-57
2022/02/25 06:28:36;;;;;;;191.32;178.82;;;;;;;4.64;65.24;101071.25;15375882;28;20051;-62
2022/02/25 06:36:08;;;;;;;;;;;;;;;4.73;64.97;101076.19;15365251;29;20058;-63
2022/02/25 06:43:42;;;;;;;239.52;220.73;;;;;;;5.07;64.38;101082.59;15381474;29;19926;-59
2022/02/25 06:51:15;;;;;;;1095.30;563.50;;;;;;;5.01;63.80;101078.22;15364124;29;20067;-58
2022/02/25 06:58:48;;;;;;;199.50;172.45;;;;;;;5.47;62.75;101083.38;15380224;29;20098;-60
2022/02/25 07:06:23;;;;;;;585.45;316.33;;;;;;;5.28;62.67;101094.31;15380144;29;20047;-59
2022/02/25 07:13:58;;;;;;;1999.90;999.90;;;;;;;5.88;60.98;101103.22;15362716;29;20126;-61
2022/02/25 07:21:30;;;;;;;209.80;187.75;;;;;;;5.73;60.51;101115.28;15358158;28;20047;-61
2022/02/25 07:29:05;;;;;;;1999.90;999.90;;;;;;;6.18;59.79;101110.41;15353840;29;20047;-63
2022/02/25 07:36:37;;;;;;;1999.90;999.90;;;;;;;6.18;59.33;101124.28;15361390;29;20047;-58
2022/02/25 07:44:11;;;;;;;131.38;78.03;;;;;;;6.23;59.07;101134.47;15360967;29;20043;-60
2022/02/25 07:51:45;;;;;;;;;;;;;;;6.91;56.84;101137.78;15362326;29;20047;-60
2022/02/25 07:59:18;;;;;;;1999.90;999.90;;;;;;;7.57;54.17;101146.25;15377463;29;19978;-60
2022/02/25 08:06:52;;;;;;;;;;;;;;;8.29;53.72;101161.38;15377815;29;20043;-56
2022/02/25 08:14:26;;;;;;;1999.90;999.90;;;;;;;9.02;51.03;101167.16;15375772;29;19970;-61
2022/02/25 08:21:58;;;;;;;;;;;;;;;9.20;50.12;101180.13;15376144;29;20098;-62
2022/02/25 08:29:31;;;;;;;1999.90;999.90;;;;;;;9.06;49.99;101177.34;15357845;29;20025;-59
2022/02/25 08:37:04;;;;;;;1999.90;999.90;;;;;;;9.98;48.05;101175.19;15374601;29;20071;-63
2022/02/25 08:44:38;;;;;;;1999.90;999.90;;;;;;;9.68;48.46;101193.50;15375492;29;20098;-60
2022/02/25 08:52:10;;;;;;;1999.90;999.90;;;;;;;9.93;47.55;101187.31;15374231;28;20043;-60
2022/02/25 08:59:44;;;;;;;1999.90;999.90;;;;;;;11.06;45.90;101185.91;15358485;29;20047;-61
2022/02/25 09:07:16;;;;;;;;;;;;;;;10.96;46.67;101183.41;15357432;29;20043;-62
2022/02/25 09:14:49;;;;;;;1999.90;999.90;;;;;;;12.24;43.28;101186.59;15372837;29;20348;-63
2022/02/25 09:22:22;;;;;;;1999.90;999.90;;;;;;;10.09;46.59;101182.97;15372787;29;20065;-61
2022/02/25 09:29:56;;;;;;;1999.90;999.90;;;;;;;10.91;45.28;101180.75;15355562;29;20047;-62
2022/02/25 09:37:29;;;;;;;;;;;;;;;10.74;46.00;101198.28;15372688;29;20058;-60
2022/02/25 09:45:04;;;;;;;1999.90;999.90;;;;;;;10.45;47.10;101200.78;15371476;29;19923;-62
2022/02/25 09:52:38;;;;;;;1999.90;999.90;;;;;;;12.14;43.73;101201.75;15371671;29;20070;-62
2022/02/25 10:00:13;;;;;;;1024.90;504.77;;;;;;;10.07;46.54;101213.16;15370725;28;20081;-62
2022/02/25 10:07:47;;;;;;;1999.90;999.90;;;;;;;9.68;46.96;101226.94;15418421;23;20078;-57
2022/02/25 10:15:28;;;;;;;1012.05;504.27;;;;;;;11.25;43.49;101227.50;15427722;28;20097;-59
2022/02/25 10:23:00;;;;;;;1999.90;999.90;;;;;;;12.13;43.31;101236.47;15430275;28;20180;-57
2022/02/25 10:30:37;;;;;;;1999.90;999.90;;;;;;;10.66;44.40;101233.38;15428999;28;20051;-57
2022/02/25 10:38:12;;;;;;;1999.90;999.90;;;;;;;12.96;40.54;101229.66;15428856;28;20400;-58
2022/02/25 10:45:48;;;;;;;1999.90;999.90;;;;;;;13.16;41.02;101242.06;15427133;28;20083;-58
2022/02/25 10:53:28;;;;;;;1999.90;999.90;;;;;;;10.25;44.48;101243.97;15427011;28;20355;-59
2022/02/25 11:01:02;;;;;;;1999.90;999.90;;;;;;;10.26;45.90;101242.84;15426791;28;20051;-57
2022/02/25 11:08:34;;;;;;;1999.90;999.90;;;;;;;9.74;47.11;101234.06;15426300;28;20449;-57
2022/02/25 11:16:08;;;;;;;1999.90;999.90;;;;;;;9.53;47.00;101237.31;15425990;28;20419;-58
2022/02/25 11:23:43;;;;;;;1999.90;999.90;;;;;;;9.43;47.84;101225.56;15409639;28;20054;-57
2022/02/25 11:31:24;;;;;;;1999.90;999.90;;;;;;;10.16;46.68;101204.84;15424851;28;20041;-57
2022/02/25 11:38:59;;;;;;;1999.90;999.90;;;;;;;10.29;46.05;101222.66;15425452;28;20051;-58
2022/02/25 11:46:41;;;;;;;1999.90;999.90;;;;;;;10.37;46.57;101219.94;15428164;28;20046;-59
2022/02/25 11:54:27;;;;;;;1999.90;999.90;;;;;;;10.12;47.39;101228.94;15416387;28;20043;-56
2022/02/25 12:02:10;;;;;;;1999.90;999.90;;;;;;;9.66;48.59;101212.50;15427621;28;20054;-58
2022/02/25 12:09:45;;;;;;;1999.90;999.90;;;;;;;9.08;49.31;101216.06;15424470;28;20567;-58
2022/02/25 12:17:18;;;;;;;1999.90;999.90;;;;;;;9.02;50.04;101204.19;15423994;28;20403;-56
2022/02/25 12:24:54;;;;;;;1999.90;999.90;;;;;;;8.76;50.68;101208.66;15407468;28;20399;-56
2022/02/25 12:32:45;;;;;;;1999.90;999.90;;;;;;;9.25;50.16;101210.66;15423228;28;20452;-58
2022/02/25 12:40:24;;;;;;;1999.90;999.90;;;;;;;8.98;49.96;101205.13;15425628;28;20074;-58
2022/02/25 12:47:59;;;;;;;1999.90;999.90;;;;;;;9.41;49.58;101205.56;15424602;28;20035;-58
2022/02/25 12:55:31;;;;;;;1999.90;999.90;;;;;;;8.79;50.34;101219.97;15423481;28;20101;-57
2022/02/25 13:03:04;;;;;;;1999.90;999.90;;;;;;;8.64;49.91;101221.06;15425848;28;20043;-59
2022/02/25 13:10:36;;;;;;;1999.90;999.90;;;;;;;8.32;51.26;101221.94;15423460;28;20051;-57
2022/02/25 13:18:19;;;;;;;1999.90;999.90;;;;;;;8.82;49.27;101224.91;15422040;28;20046;-57
2022/02/25 13:25:56;;;;;;;1999.90;999.90;;;;;;;9.12;49.00;101222.63;15422298;28;20055;-58
2022/02/25 13:33:29;;;;;;;1999.90;999.90;;;;;;;9.19;48.50;101225.84;15419932;28;20400;-58
2022/02/25 13:41:07;;;;;;;1999.90;999.90;;;;;;;8.76;48.79;101244.81;15421191;28;20097;-60
2022/02/25 13:56:39;;;;;;;292.23;262.52;;;;;;;7.61;57.40;101277.81;15420014;28;20063;-56
2022/02/25 14:04:16;;;;;;;345.83;321.05;;;;;;;7.73;58.12;101281.84;15419845;28;20506;-55
2022/02/25 14:12:03;;;;;;;1528.25;776.28;;;;;;;7.60;58.75;101282.56;15419412;28;20072;-56
2022/02/25 14:19:38;;;;;;;175.85;163.77;;;;;;;7.66;59.43;101291.66;15420301;28;20626;-56
2022/02/25 14:27:17;;;;;;;416.25;378.52;;;;;;;7.65;59.49;101278.91;15420259;28;20053;-55
2022/02/25 14:34:52;;;;;;;357.45;325.55;;;;;;;7.96;58.97;101284.81;15419352;28;20051;-59
2022/02/25 14:42:27;;;;;;;1999.90;999.90;;;;;;;7.68;59.22;101286.63;15419559;28;20253;-55
2022/02/25 14:50:02;;;;;;;1999.90;999.90;;;;;;;8.01;58.30;101280.00;15424140;28;20062;-58
2022/02/25 14:57:39;;;;;;;1999.90;999.90;;;;;;;7.97;59.02;101267.84;15430934;28;20051;-54
2022/02/25 15:05:14;;;;;;;817.27;472.10;;;;;;;7.87;60.65;101264.41;15426313;28;20039;-56
2022/02/25 15:12:48;;;;;;;163.43;152.70;;;;;;;7.36;61.52;101268.72;15426593;28;20521;-55
2022/02/25 15:20:23;;;;;;;806.72;431.33;;;;;;;7.30;61.69;101294.09;15427348;28;20051;-55
2022/02/25 15:27:55;;;;;;;333.63;268.08;;;;;;;7.53;62.23;101291.28;15403358;28;20066;-55
2022/02/25 15:35:29;;;;;;;277.90;173.73;;;;;;;7.19;63.60;101293.38;15398040;28;20051;-61
2022/02/25 15:43:01;;;;;;;238.00;216.02;;;;;;;7.13;64.22;101286.25;15420296;28;20332;-52
2022/02/25 15:50:36;;;;;;;189.00;174.57;;;;;;;7.11;64.78;101285.72;15407393;28;20050;-54
2022/02/25 15:58:09;;;;;;;204.68;189.38;;;;;;;6.96;65.41;101295.03;15364830;28;20496;-55
2022/02/25 16:05:42;;;;;;;178.65;163.05;;;;;;;6.91;65.72;101306.22;15420221;23;20138;-62
2022/02/25 16:13:14;;;;;;;;;;;;;;;7.12;65.01;101304.03;15371510;29;20444;-62
2022/02/25 16:20:48;;;;;;;279.25;253.38;;;;;;;7.06;65.30;101308.78;15357198;28;19934;-62
2022/02/25 16:28:21;;;;;;;;;;;;;;;7.15;65.28;101312.59;15354238;29;20552;-63
2022/02/25 16:35:55;;;;;;;342.07;304.80;;;;;;;7.01;64.43;101300.53;15370277;29;19926;-65
2022/02/25 16:43:27;;;;;;;164.77;153.40;;;;;;;7.07;64.43;101302.13;15372460;29;20062;-62
2022/02/25 16:51:01;;;;;;;236.33;217.93;;;;;;;7.14;64.20;101315.66;15371133;29;20047;-61
2022/02/25 16:58:33;;;;;;;213.65;197.43;;;;;;;7.00;64.65;101307.22;15374042;29;20051;-63
2022/02/25 17:06:08;;;;;;;227.73;210.98;;;;;;;6.86;65.05;101322.91;15355765;28;20043;-62
2022/02/25 17:13:41;;;;;;;383.52;349.05;;;;;;;7.07;64.73;101332.66;15353589;28;20078;-61
2022/02/25 17:21:14;;;;;;;252.18;234.18;;;;;;;7.41;63.86;101356.72;15355767;28;20694;-62
2022/02/25 17:28:49;;;;;;;314.65;281.23;;;;;;;7.09;64.81;101351.81;15355607;29;20043;-61
2022/02/25 17:36:22;;;;;;;311.27;287.98;;;;;;;7.09;64.63;101360.13;15337372;29;20244;-62
2022/02/25 17:43:55;;;;;;;217.95;198.35;;;;;;;7.14;64.59;101374.75;15338277;29;20106;-61
2022/02/25 17:51:29;;;;;;;291.00;268.77;;;;;;;7.23;64.81;101378.56;15364722;29;20045;-62
2022/02/25 17:59:01;;;;;;;292.90;272.05;;;;;;;7.35;63.73;101397.56;15357161;29;20082;-61
2022/02/25 18:06:36;;;;;;;153.38;142.77;;;;;;;7.42;64.70;101411.94;15335396;29;20469;-62
2022/02/25 18:14:08;;;;;;;205.55;190.30;;;;;;;6.55;68.65;101431.34;15325297;29;20048;-62
2022/02/25 18:21:43;;;;;;;273.30;254.48;;;;;;;6.73;70.15;101438.13;15357249;28;20051;-64
2022/02/25 18:29:15;;;;;;;;;;;;;;;6.44;71.80;101445.56;15381228;28;20126;-63
2022/02/25 18:36:49;;;;;;;226.15;212.50;;;;;;;6.81;71.07;101450.56;15367859;29;19958;-61
2022/02/25 18:44:21;;;;;;;207.65;195.07;;;;;;;6.83;69.97;101449.16;15379433;28;20512;-62
2022/02/25 18:51:55;;;;;;;215.65;202.40;;;;;;;6.72;69.90;101458.69;15375870;29;20051;-62
2022/02/25 18:59:27;;;;;;;235.00;219.00;;;;;;;6.39;72.13;101476.94;15315947;29;20059;-62
2022/02/25 19:07:01;;;;;;;269.27;251.82;;;;;;;6.21;74.21;101480.34;15373931;29;20061;-59
2022/02/25 19:14:36;;;;;;;535.13;482.90;;;;;;;5.88;75.03;101487.41;15374844;29;20047;-63
2022/02/25 19:22:10;;;;;;;224.00;208.35;;;;;;;6.29;74.82;101504.72;15374070;29;20121;-63
2022/02/25 19:29:42;;;;;;;;;;;;;;;6.42;74.86;101515.16;15357330;29;20043;-63
2022/02/25 19:37:15;;;;;;;246.32;230.05;;;;;;;5.84;76.62;101523.16;15372841;28;19926;-63
2022/02/25 19:44:48;;;;;;;477.05;429.60;;;;;;;5.58;78.29;101530.69;15363177;29;20058;-61
2022/02/25 19:52:23;;;;;;;468.50;426.30;;;;;;;5.92;77.34;101532.84;15367412;28;20050;-62
2022/02/25 19:59:56;;;;;;;480.85;439.05;;;;;;;6.01;77.42;101554.16;15373480;29;20039;-65
2022/02/25 20:07:33;;;;;;;434.38;395.45;;;;;;;6.17;77.36;101574.34;15372151;29;20126;-61
2022/02/25 20:15:07;;;;;;;449.25;404.48;;;;;;;6.13;77.13;101576.00;15366260;29;20054;-61
2022/02/25 20:22:41;;;;;;;275.00;250.88;;;;;;;6.21;76.43;101592.03;15369129;29;20156;-62
2022/02/25 20:30:13;;;;;;;194.80;182.40;;;;;;;6.39;76.74;101607.25;15370158;29;20043;-62
2022/02/25 20:37:49;;;;;;;352.30;314.10;;;;;;;6.20;77.21;101614.50;15325102;29;20404;-62
2022/02/25 20:45:22;;;;;;;792.63;520.30;;;;;;;6.23;77.91;101620.31;15350250;28;20106;-61
2022/02/25 20:52:56;;;;;;;286.73;266.85;;;;;;;6.61;76.72;101631.81;15385134;28;20126;-62
2022/02/25 21:00:28;;;;;;;212.30;197.77;;;;;;;6.74;76.74;101645.06;15360704;28;20054;-63
2022/02/25 21:08:01;;;;;;;673.35;411.60;;;;;;;6.72;76.61;101677.81;15326287;29;20470;-62
2022/02/25 21:15:35;;;;;;;194.93;182.65;;;;;;;6.55;77.54;101680.09;15358222;29;20066;-62
2022/02/25 21:23:08;;;;;;;304.52;284.02;;;;;;;6.82;76.98;101682.50;15367467;28;20051;-63
2022/02/25 21:30:41;;;;;;;238.98;223.60;;;;;;;6.70;77.40;101705.00;15368609;29;20051;-63
2022/02/25 21:38:15;;;;;;;278.90;259.83;;;;;;;6.85;77.19;101713.25;15350252;29;20051;-62
2022/02/25 21:45:47;;;;;;;;;;;;;;;6.93;77.58;101726.53;15367303;29;20500;-62
2022/02/25 21:53:20;;;;;;;312.92;284.67;;;;;;;6.78;78.25;101736.88;15349456;29;20113;-62
2022/02/25 22:00:53;;;;;;;403.65;374.10;;;;;;;6.74;78.69;101744.94;15373075;28;20408;-62
2022/02/25 22:08:29;;;;;;;600.67;539.83;;;;;;;6.70;77.92;101760.50;15389360;28;20051;-62
2022/02/25 22:16:01;;;;;;;251.27;234.52;;;;;;;6.74;78.27;101767.13;15380907;29;20040;-61
2022/02/25 22:23:34;;;;;;;262.60;243.55;;;;;;;6.80;77.42;101774.31;15365239;28;20047;-64
2022/02/25 22:31:07;;;;;;;281.52;262.30;;;;;;;6.69;77.45;101789.34;15377379;29;20055;-63
2022/02/25 22:38:40;;;;;;;206.68;191.93;;;;;;;6.88;76.30;101803.44;15375580;28;20043;-64
2022/02/25 22:46:13;;;;;;;269.85;247.85;;;;;;;6.72;77.11;101805.41;15376213;29;20059;-64
2022/02/25 23:01:37;;;;;;;169.23;157.93;;;;;;;6.97;75.67;101839.75;15366506;29;20039;-63
2022/02/25 23:09:10;;;;;;;213.90;199.60;;;;;;;7.10;75.01;101851.09;15313373;28;20055;-63
2022/02/25 23:16:42;;;;;;;311.80;289.73;;;;;;;6.63;75.61;101868.13;15376182;29;20073;-62
2022/02/25 23:24:16;;;;;;;211.93;196.23;;;;;;;6.95;74.09;101874.16;15369270;29;20509;-63
2022/02/25 23:31:53;;;;;;;;;;;;;;;7.07;73.26;101884.13;15349081;29;20050;-62
2022/02/25 23:39:26;;;;;;;274.05;250.85;;;;;;;6.58;73.72;101895.88;15340734;29;19923;-62
2022/02/25 23:46:58;;;;;;;;;;;;;;;6.71;73.06;101895.28;15374583;29;20043;-64
2022/02/25 23:54:33;;;;;;;254.48;235.23;;;;;;;6.62;72.94;101914.44;15355282;29;19926;-63
